createdAt,value
2022-12-17T00:02:12.150Z,0
2022-12-17T00:11:48.280Z,0
2022-12-17T00:21:24.722Z,0
2022-12-17T00:31:00.989Z,0
2022-12-17T00:40:37.612Z,0
2022-12-17T00:50:13.858Z,0
2022-12-17T00:59:50.280Z,0
2022-12-17T01:09:26.704Z,0
2022-12-17T01:19:03.329Z,0
2022-12-17T01:28:39.776Z,0
2022-12-17T01:38:15.959Z,0
2022-12-17T01:47:52.401Z,0
2022-12-17T01:57:28.798Z,0
2022-12-17T02:07:04.728Z,0
2022-12-17T02:16:41.099Z,0
2022-12-17T02:26:16.632Z,0
2022-12-17T02:35:52.857Z,0
2022-12-17T02:45:29.274Z,0
2022-12-17T02:55:05.746Z,0
2022-12-17T03:04:41.976Z,0
2022-12-17T03:14:18.158Z,0
2022-12-17T03:23:54.402Z,0
2022-12-17T03:33:30.410Z,0
2022-12-17T03:43:06.850Z,0
2022-12-17T03:52:42.679Z,0
2022-12-17T04:02:17.962Z,0
2022-12-17T04:11:53.311Z,0
2022-12-17T04:21:29.061Z,0
2022-12-17T04:31:05.002Z,0
2022-12-17T04:40:40.782Z,0
2022-12-17T04:50:17.143Z,0
2022-12-17T04:59:52.773Z,0
2022-12-17T05:09:28.901Z,0
2022-12-17T05:19:05.201Z,0
2022-12-17T05:28:42.002Z,0
2022-12-17T05:38:18.321Z,0
2022-12-17T05:47:54.322Z,0
2022-12-17T05:57:31.009Z,0
2022-12-17T06:07:07.904Z,0
2022-12-17T06:16:44.578Z,0
2022-12-17T06:26:20.686Z,0
2022-12-17T06:35:56.293Z,0
2022-12-17T06:45:32.357Z,0
2022-12-17T06:55:08.412Z,0
2022-12-17T07:04:44.695Z,5.63
2022-12-17T07:14:21.258Z,11.25
2022-12-17T07:23:58.165Z,16.88
2022-12-17T07:33:37.109Z,39.38
2022-12-17T07:43:13.884Z,61.88
2022-12-17T07:52:50.295Z,78.75
2022-12-17T08:02:27.261Z,106.88
2022-12-17T08:12:04.681Z,112.5
2022-12-17T08:21:42.474Z,219.38
2022-12-17T08:31:20.471Z,241.88
2022-12-17T08:40:57.901Z,275.63
2022-12-17T08:50:35.370Z,320.63
2022-12-17T09:00:12.241Z,309.38
2022-12-17T09:09:49.452Z,241.88
2022-12-17T09:19:24.091Z,241.88
2022-12-17T09:28:59.584Z,208.13
2022-12-17T09:38:35.810Z,225
2022-12-17T09:48:12.636Z,286.88
2022-12-17T09:57:49.572Z,292.5
2022-12-17T10:07:27.389Z,337.5
2022-12-17T10:17:10.069Z,405
2022-12-17T10:26:42.115Z,399.38
2022-12-17T10:36:19.083Z,405
2022-12-17T10:45:56.394Z,376.88
2022-12-17T10:55:33.050Z,495
2022-12-17T11:05:12.399Z,528.75
2022-12-17T11:14:49.479Z,461.25
2022-12-17T11:24:25.000Z,421.88
2022-12-17T11:34:02.127Z,461.25
2022-12-17T11:43:39.339Z,438.75
2022-12-17T11:53:15.262Z,371.25
2022-12-17T12:02:50.888Z,343.13
2022-12-17T12:12:26.542Z,286.88
2022-12-17T12:22:02.336Z,298.13
2022-12-17T12:31:39.615Z,315
2022-12-17T12:41:16.526Z,309.38
2022-12-17T12:50:53.716Z,309.38
2022-12-17T13:00:31.750Z,866.25
2022-12-17T13:10:47.219Z,2216.25
2022-12-17T13:20:20.802Z,1350
2022-12-17T13:29:46.272Z,1271.25
2022-12-17T13:39:11.895Z,804.38
2022-12-17T13:48:46.985Z,1479.38
2022-12-17T13:58:28.442Z,607.5
2022-12-17T14:08:12.015Z,1012.5
2022-12-17T14:17:33.528Z,168.75
2022-12-17T14:27:04.566Z,129.38
2022-12-17T14:36:37.527Z,90
2022-12-17T14:46:11.723Z,67.5
2022-12-17T14:55:48.575Z,45
2022-12-17T15:05:21.328Z,28.13
2022-12-17T15:14:56.710Z,11.25
2022-12-17T15:24:32.097Z,5.63
2022-12-17T15:34:07.431Z,0
2022-12-17T15:43:43.370Z,0
2022-12-17T15:53:18.963Z,0
2022-12-17T16:02:55.043Z,0
2022-12-17T16:12:34.036Z,0
2022-12-17T16:22:07.614Z,0
2022-12-17T16:31:43.278Z,0
2022-12-17T16:41:19.117Z,0
2022-12-17T16:50:55.142Z,0
2022-12-17T17:00:30.774Z,0
2022-12-17T17:10:06.573Z,0
2022-12-17T17:19:42.247Z,0
2022-12-17T17:29:17.907Z,0
2022-12-17T17:38:54.038Z,0
2022-12-17T17:48:29.925Z,0
2022-12-17T17:58:05.458Z,0
2022-12-17T18:07:41.093Z,0
2022-12-17T18:17:17.302Z,0
2022-12-17T18:26:53.548Z,0
2022-12-17T18:36:29.782Z,0
2022-12-17T18:46:04.916Z,0
2022-12-17T18:55:40.584Z,0
2022-12-17T19:05:16.149Z,0
2022-12-17T19:14:51.734Z,0
2022-12-17T19:24:27.717Z,0
2022-12-17T19:34:03.692Z,0
2022-12-17T19:43:39.508Z,0
2022-12-17T19:53:15.120Z,0
2022-12-17T20:02:50.719Z,0
2022-12-17T20:12:26.663Z,0
2022-12-17T20:22:02.405Z,0
2022-12-17T20:31:38.042Z,0
2022-12-17T20:41:14.254Z,0
2022-12-17T20:50:52.005Z,0
2022-12-17T21:00:27.960Z,0
2022-12-17T21:10:04.257Z,0
2022-12-17T21:19:40.362Z,0
2022-12-17T21:29:16.167Z,0
2022-12-17T21:38:51.904Z,0
2022-12-17T21:48:27.362Z,0
2022-12-17T21:58:01.957Z,0
2022-12-17T22:07:37.459Z,0
2022-12-17T22:17:12.776Z,0
2022-12-17T22:26:48.817Z,0
2022-12-17T22:37:48.322Z,0
2022-12-17T22:46:02.207Z,0
2022-12-17T22:55:37.657Z,0
2022-12-17T23:05:14.661Z,0
2022-12-17T23:14:50.770Z,0
2022-12-17T23:24:26.999Z,0
2022-12-17T23:34:03.276Z,0
2022-12-17T23:43:39.811Z,0
2022-12-17T23:53:15.221Z,0
